Time;durP1;ratioP1;P1;durP2;ratioP2;P2;SDS_P1;SDS_P2;PMS_P1;PMS_P2;Temp;Humidity;BMP_temperature;BMP_pressure;BME280_temperature;BME280_humidity;BME280_pressure;Samples;Min_cycle;Max_cycle;Signal;HPM_P1;HPM_P2
2021/06/13 00:01:20;;;;;;;3.55;2.53;;;;;;;;;;6190107;23;20005;-90
2021/06/13 00:03:47;;;;;;;4.15;2.72;;;;;;;;;;6190259;23;20141;-90
2021/06/13 00:06:13;;;;;;;5.93;2.65;;;;;;;;;;6190065;23;20007;-90
2021/06/13 00:08:38;;;;;;;10.25;2.97;;;;;;;;;;6190968;23;20016;-90
2021/06/13 00:11:04;;;;;;;6.57;2.88;;;;;;;;;;6192420;23;20334;-89
2021/06/13 00:13:30;;;;;;;10.02;3.10;;;;;;;;;;6222673;23;20000;-89
2021/06/13 00:15:56;;;;;;;3.88;2.67;;;;;;;;;;6197646;23;20001;-89
2021/06/13 00:18:22;;;;;;;5.82;2.33;;;;;;;;;;6233862;23;20465;-89
2021/06/13 08:06:02;;;;;;;9.68;2.60;;;;;;;;;;6247478;22;20417;-84
2021/06/13 08:08:27;;;;;;;4.47;2.20;;;;;;;;;;6219155;23;20012;-86
2021/06/13 08:10:53;;;;;;;2.75;2.40;;;;;;;;;;6245441;23;20042;-86
2021/06/13 08:13:20;;;;;;;3.58;2.10;;;;;;;;;;6218265;23;20000;-87
2021/06/13 08:18:33;;;;;;;5.70;2.20;;;;;;;;;;6246336;23;20061;-88
2021/06/13 08:20:59;;;;;;;3.72;1.90;;;;;;;;;;6243442;23;20000;-87
2021/06/13 08:23:30;;;;;;;10.43;2.50;;;;;;;;;;6217548;23;20035;-87
2021/06/13 08:25:59;;;;;;;3.00;2.10;;;;;;;;;;6219363;23;20006;-90
2021/06/13 08:28:25;;;;;;;3.83;1.90;;;;;;;;;;6221693;23;20008;-90
2021/06/13 08:33:58;;;;;;;5.45;1.90;;;;;;;;;;6246358;22;20102;-90
2021/06/13 08:36:24;;;;;;;2.78;2.10;;;;;;;;;;6219800;23;20054;-91
2021/06/13 08:38:55;;;;;;;4.15;1.90;;;;;;;;;;6219833;23;20050;-90
2021/06/13 08:41:21;;;;;;;4.78;2.00;;;;;;;;;;6246029;22;20000;-90
2021/06/13 08:43:48;;;;;;;3.22;1.92;;;;;;;;;;6218109;23;20430;-91
2021/06/13 08:46:14;;;;;;;5.50;2.20;;;;;;;;;;6219010;23;20000;-90
2021/06/13 08:48:44;;;;;;;3.08;1.88;;;;;;;;;;6218609;23;20011;-89
2021/06/13 08:51:09;;;;;;;2.90;2.00;;;;;;;;;;6217978;23;20023;-91
2021/06/13 08:53:43;;;;;;;2.03;1.70;;;;;;;;;;6219140;23;19996;-92
2021/06/13 08:56:13;;;;;;;4.25;2.00;;;;;;;;;;6219152;23;20526;-91
2021/06/13 08:58:39;;;;;;;4.05;1.90;;;;;;;;;;6218538;23;20039;-93
2021/06/13 09:01:06;;;;;;;3.08;1.70;;;;;;;;;;6245274;23;20437;-93
2021/06/13 09:03:35;;;;;;;7.03;1.77;;;;;;;;;;6218239;23;20588;-92
2021/06/13 09:06:07;;;;;;;4.00;1.90;;;;;;;;;;6218413;23;20059;-92
2021/06/13 09:08:40;;;;;;;6.63;1.98;;;;;;;;;;6217959;23;20011;-92
2021/06/13 09:11:26;;;;;;;6.25;1.80;;;;;;;;;;6215938;23;20014;-92
2021/06/13 09:13:52;;;;;;;6.78;2.40;;;;;;;;;;6218149;23;20490;-92
2021/06/13 09:16:26;;;;;;;3.83;1.88;;;;;;;;;;6245219;23;20035;-92
2021/06/13 09:18:52;;;;;;;6.63;1.90;;;;;;;;;;6220372;23;19992;-91
2021/06/13 09:21:20;;;;;;;3.70;1.90;;;;;;;;;;6248105;23;20004;-94
2021/06/13 09:23:50;;;;;;;8.98;2.42;;;;;;;;;;6220695;23;20000;-92
2021/06/13 09:26:19;;;;;;;4.63;1.88;;;;;;;;;;6220472;23;20004;-93
2021/06/13 09:28:53;;;;;;;3.15;1.88;;;;;;;;;;6219921;23;20087;-93
2021/06/13 17:43:13;;;;;;;6.70;2.85;;;;;;;;;;5077098;27;20385;-91
2021/06/13 17:45:40;;;;;;;6.38;2.83;;;;;;;;;;5063432;28;20056;-88
2021/06/13 17:48:09;;;;;;;5.40;2.92;;;;;;;;;;5047693;28;20060;-88
2021/06/13 17:50:34;;;;;;;2.78;2.50;;;;;;;;;;5046963;28;20029;-88
2021/06/13 17:53:00;;;;;;;4.00;2.80;;;;;;;;;;5052373;28;20483;-88
2021/06/13 17:55:28;;;;;;;4.57;2.80;;;;;;;;;;5045700;28;20025;-88
2021/06/13 17:57:57;;;;;;;8.43;3.28;;;;;;;;;;5046854;28;20025;-88
2021/06/13 18:00:23;;;;;;;5.53;3.03;;;;;;;;;;5041991;28;21363;-88
2021/06/13 18:02:49;;;;;;;2.92;2.45;;;;;;;;;;5042007;28;20801;-88
2021/06/13 18:05:14;;;;;;;5.47;2.75;;;;;;;;;;5043245;28;20036;-89
2021/06/13 18:07:40;;;;;;;12.27;3.35;;;;;;;;;;5048202;28;20039;-88
2021/06/13 18:10:06;;;;;;;4.68;2.53;;;;;;;;;;5041262;28;20501;-87
2021/06/13 18:12:33;;;;;;;5.72;2.83;;;;;;;;;;5044572;28;20419;-88
2021/06/13 18:14:59;;;;;;;3.83;2.67;;;;;;;;;;5044318;28;20056;-85
2021/06/13 18:17:26;;;;;;;4.75;2.80;;;;;;;;;;5045182;28;20052;-84
2021/06/13 18:19:52;;;;;;;3.20;2.70;;;;;;;;;;5042188;28;20029;-85
2021/06/13 18:22:19;;;;;;;6.10;2.80;;;;;;;;;;5042807;28;20035;-85
2021/06/13 18:24:44;;;;;;;4.65;2.90;;;;;;;;;;5042279;28;20525;-85
2021/06/13 18:27:10;;;;;;;3.88;2.80;;;;;;;;;;5047504;28;20028;-85
2021/06/13 18:29:35;;;;;;;6.63;2.63;;;;;;;;;;5051621;28;20040;-85
2021/06/13 18:32:01;;;;;;;44.42;6.22;;;;;;;;;;5045945;28;20025;-88
2021/06/13 18:34:27;;;;;;;10.40;3.30;;;;;;;;;;5046162;28;20029;-88
2021/06/13 18:36:52;;;;;;;2.92;2.47;;;;;;;;;;5043846;28;20029;-86
2021/06/13 18:39:26;;;;;;;4.50;2.88;;;;;;;;;;5036918;28;20510;-88
2021/06/13 18:41:54;;;;;;;5.03;2.70;;;;;;;;;;5045400;28;20041;-87
2021/06/13 18:44:20;;;;;;;4.55;2.40;;;;;;;;;;5031068;28;20029;-86
2021/06/13 18:46:46;;;;;;;4.55;2.47;;;;;;;;;;5033371;28;20040;-86
2021/06/13 18:49:11;;;;;;;6.07;2.50;;;;;;;;;;5027234;28;20029;-86
2021/06/13 18:51:37;;;;;;;3.08;2.08;;;;;;;;;;5026665;28;20025;-86
2021/06/13 18:54:03;;;;;;;8.93;3.70;;;;;;;;;;5030599;28;20419;-86
2021/06/13 18:56:29;;;;;;;4.82;2.65;;;;;;;;;;5019405;28;20033;-87
2021/06/13 18:58:57;;;;;;;4.45;2.65;;;;;;;;;;5029067;28;20040;-86
2021/06/13 19:01:23;;;;;;;4.78;2.70;;;;;;;;;;5026749;28;20026;-85
2021/06/13 19:03:49;;;;;;;6.93;3.05;;;;;;;;;;5030121;28;20030;-86
2021/06/13 19:06:15;;;;;;;3.35;2.80;;;;;;;;;;5029413;28;22554;-86
2021/06/13 19:08:42;;;;;;;5.07;2.78;;;;;;;;;;5034520;28;20025;-85
2021/06/13 19:11:08;;;;;;;4.25;2.60;;;;;;;;;;5030989;28;20033;-85
2021/06/13 19:13:35;;;;;;;3.13;2.28;;;;;;;;;;5033895;28;20025;-85
2021/06/13 19:16:01;;;;;;;2.88;2.55;;;;;;;;;;5029817;28;20451;-86
2021/06/13 19:18:27;;;;;;;10.10;2.45;;;;;;;;;;5029995;28;20120;-86
2021/06/13 19:20:53;;;;;;;5.07;2.72;;;;;;;;;;5034327;28;20117;-85
2021/06/13 19:23:18;;;;;;;4.28;2.50;;;;;;;;;;5030540;28;20415;-86
2021/06/13 19:25:44;;;;;;;5.00;2.75;;;;;;;;;;5031304;28;20033;-86
2021/06/13 19:28:09;;;;;;;4.05;2.70;;;;;;;;;;5033578;28;20033;-86
2021/06/13 19:30:35;;;;;;;4.25;2.60;;;;;;;;;;5036847;28;20021;-86
2021/06/13 19:33:03;;;;;;;7.28;3.50;;;;;;;;;;5032004;28;20502;-86
2021/06/13 19:35:29;;;;;;;6.18;3.63;;;;;;;;;;5031620;28;20034;-86
2021/06/13 19:37:55;;;;;;;6.65;3.80;;;;;;;;;;5031827;28;20037;-87
2021/06/13 19:40:25;;;;;;;6.82;3.58;;;;;;;;;;5029370;28;20368;-87
2021/06/13 19:42:51;;;;;;;7.70;3.40;;;;;;;;;;5029223;28;20045;-87
2021/06/13 19:45:17;;;;;;;4.85;2.83;;;;;;;;;;5028229;28;20041;-85
2021/06/13 19:47:43;;;;;;;5.63;2.92;;;;;;;;;;5030905;28;20398;-87
2021/06/13 19:50:10;;;;;;;3.75;2.97;;;;;;;;;;5029880;28;20633;-88
2021/06/13 19:52:36;;;;;;;5.03;2.83;;;;;;;;;;5028452;28;20419;-87
2021/06/13 19:55:04;;;;;;;5.85;2.72;;;;;;;;;;5028369;28;20041;-87
2021/06/13 19:57:30;;;;;;;2.53;2.33;;;;;;;;;;5030354;28;20036;-87
2021/06/13 19:59:55;;;;;;;4.65;3.00;;;;;;;;;;5028455;28;20116;-87
2021/06/13 20:02:21;;;;;;;4.10;2.58;;;;;;;;;;5029290;28;20021;-88
2021/06/13 20:04:47;;;;;;;5.22;2.70;;;;;;;;;;5029161;28;20041;-88
2021/06/13 20:07:12;;;;;;;5.40;2.80;;;;;;;;;;5029138;28;20501;-89
2021/06/13 20:09:38;;;;;;;4.47;2.92;;;;;;;;;;5033241;28;20100;-90
2021/06/13 20:12:04;;;;;;;5.82;3.00;;;;;;;;;;5030411;28;20070;-90
2021/06/13 20:14:32;;;;;;;8.15;3.40;;;;;;;;;;5033156;28;20029;-90
2021/06/13 20:17:01;;;;;;;7.47;3.30;;;;;;;;;;5027349;28;20062;-94
2021/06/13 20:19:26;;;;;;;7.20;3.05;;;;;;;;;;5029589;28;20033;-90
2021/06/13 20:21:52;;;;;;;7.13;3.00;;;;;;;;;;5031883;28;20074;-89
2021/06/13 20:24:17;;;;;;;4.72;2.88;;;;;;;;;;5031314;28;20167;-91
2021/06/13 20:26:43;;;;;;;14.77;3.38;;;;;;;;;;5034986;28;20056;-87
2021/06/13 20:29:08;;;;;;;4.50;2.90;;;;;;;;;;5033112;28;20029;-89
2021/06/13 20:31:39;;;;;;;11.38;3.33;;;;;;;;;;5051484;28;20021;-89
2021/06/13 20:34:04;;;;;;;;;;;;;;;;;;5039133;28;20033;-89
2021/06/13 20:36:30;;;;;;;5.93;2.58;;;;;;;;;;5030702;28;20003;-90
2021/06/13 20:38:55;;;;;;;3.17;2.75;;;;;;;;;;5032002;28;20087;-90
2021/06/13 20:41:21;;;;;;;5.32;2.58;;;;;;;;;;5031254;28;20037;-90
2021/06/13 20:43:46;;;;;;;5.03;3.10;;;;;;;;;;5044879;28;20570;-90
2021/06/13 20:46:12;;;;;;;3.35;2.70;;;;;;;;;;5032846;28;20029;-91
2021/06/13 20:48:37;;;;;;;4.43;2.75;;;;;;;;;;5031966;28;20549;-89
2021/06/13 20:51:04;;;;;;;7.05;3.00;;;;;;;;;;5031115;28;20479;-90
2021/06/13 20:53:32;;;;;;;2.92;2.70;;;;;;;;;;5032986;28;20038;-90
2021/06/13 20:55:57;;;;;;;4.00;3.22;;;;;;;;;;5015748;28;20554;-91
2021/06/13 20:58:23;;;;;;;3.42;2.97;;;;;;;;;;5029619;28;20025;-91
2021/06/13 21:00:49;;;;;;;5.70;3.03;;;;;;;;;;5032423;28;20438;-91
2021/06/13 21:03:16;;;;;;;5.85;3.00;;;;;;;;;;5030407;28;20087;-91
2021/06/13 21:05:44;;;;;;;5.60;3.00;;;;;;;;;;5030149;28;20501;-91
2021/06/13 21:08:10;;;;;;;6.68;3.47;;;;;;;;;;5031953;28;20029;-94
2021/06/13 21:10:36;;;;;;;6.18;3.10;;;;;;;;;;5030577;28;20036;-92
2021/06/13 21:13:02;;;;;;;5.00;2.83;;;;;;;;;;5031746;28;20529;-90
2021/06/13 21:15:30;;;;;;;4.03;2.75;;;;;;;;;;5041097;28;20025;-90
2021/06/13 21:17:56;;;;;;;8.10;3.30;;;;;;;;;;5033678;28;20031;-89
2021/06/13 21:20:31;;;;;;;6.07;3.35;;;;;;;;;;5031323;28;20029;-90
2021/06/13 21:22:56;;;;;;;3.88;3.08;;;;;;;;;;5031134;28;20095;-90
2021/06/13 21:25:23;;;;;;;5.72;3.20;;;;;;;;;;5031222;28;20025;-91
2021/06/13 21:27:49;;;;;;;5.82;3.30;;;;;;;;;;5030657;28;20517;-90
2021/06/13 21:30:15;;;;;;;6.57;3.05;;;;;;;;;;5030236;28;20064;-91
2021/06/13 21:32:40;;;;;;;4.32;3.17;;;;;;;;;;5029059;28;20048;-90
2021/06/13 21:35:07;;;;;;;6.38;3.25;;;;;;;;;;5030911;28;20446;-89
2021/06/13 21:37:32;;;;;;;3.53;3.20;;;;;;;;;;5036233;28;20552;-90
2021/06/13 21:39:58;;;;;;;3.30;3.00;;;;;;;;;;5030926;28;20025;-90
2021/06/13 21:42:23;;;;;;;5.07;3.00;;;;;;;;;;5037174;28;20029;-90
2021/06/13 21:44:50;;;;;;;7.60;3.25;;;;;;;;;;5032441;28;20386;-90
2021/06/13 21:47:17;;;;;;;6.28;3.13;;;;;;;;;;5030880;28;20121;-90
2021/06/13 21:49:42;;;;;;;6.85;3.10;;;;;;;;;;5030178;28;20079;-90
2021/06/13 21:52:11;;;;;;;5.07;3.10;;;;;;;;;;5030711;28;20048;-91
2021/06/13 21:54:36;;;;;;;3.72;2.97;;;;;;;;;;5031638;28;20029;-91
2021/06/13 21:57:02;;;;;;;5.13;3.40;;;;;;;;;;5030841;28;20052;-91
2021/06/13 21:59:27;;;;;;;5.35;3.40;;;;;;;;;;5030724;28;20491;-91
2021/06/13 22:01:53;;;;;;;4.72;3.13;;;;;;;;;;5029969;28;20026;-91
2021/06/13 22:04:18;;;;;;;4.45;3.17;;;;;;;;;;5032183;28;20030;-91
2021/06/13 22:06:44;;;;;;;5.32;3.40;;;;;;;;;;5029593;28;20025;-91
2021/06/13 22:09:10;;;;;;;4.03;3.53;;;;;;;;;;5041831;28;20100;-91
2021/06/13 22:11:35;;;;;;;5.88;3.60;;;;;;;;;;5033486;28;20179;-91
2021/06/13 22:14:01;;;;;;;5.75;3.13;;;;;;;;;;5030762;28;20026;-92
2021/06/13 22:16:26;;;;;;;4.15;3.53;;;;;;;;;;5030068;28;20030;-91
2021/06/13 22:18:52;;;;;;;5.07;3.42;;;;;;;;;;5033801;28;20029;-92
2021/06/13 22:21:22;;;;;;;4.30;3.40;;;;;;;;;;5034094;28;20053;-92
2021/06/13 22:23:52;;;;;;;6.85;3.78;;;;;;;;;;5028598;28;20109;-92
2021/06/13 22:26:17;;;;;;;5.25;3.85;;;;;;;;;;5053550;28;20427;-92
2021/06/13 22:28:43;;;;;;;4.70;3.60;;;;;;;;;;5055017;28;20070;-91
2021/06/13 22:31:09;;;;;;;4.50;3.85;;;;;;;;;;5053623;28;20025;-91
2021/06/13 22:33:36;;;;;;;4.85;4.00;;;;;;;;;;5055033;28;20062;-90
2021/06/13 22:36:03;;;;;;;6.18;3.70;;;;;;;;;;5055286;28;20043;-91
2021/06/13 22:38:28;;;;;;;5.65;3.72;;;;;;;;;;5054994;28;20517;-91
2021/06/13 22:40:56;;;;;;;7.55;3.67;;;;;;;;;;5041168;28;20057;-92
2021/06/13 22:43:23;;;;;;;6.45;4.13;;;;;;;;;;5013824;28;20029;-91
2021/06/13 22:45:48;;;;;;;5.47;3.90;;;;;;;;;;5033628;28;20029;-91
2021/06/13 22:48:14;;;;;;;4.07;3.58;;;;;;;;;;5035262;28;20094;-92
2021/06/13 22:50:39;;;;;;;4.43;3.53;;;;;;;;;;5046133;28;20432;-91
2021/06/13 22:53:05;;;;;;;5.55;4.05;;;;;;;;;;5053840;28;20037;-92
2021/06/13 22:55:30;;;;;;;4.53;3.85;;;;;;;;;;5053370;28;20024;-92
2021/06/13 22:57:56;;;;;;;7.90;4.15;;;;;;;;;;5053773;28;20100;-91
2021/06/13 23:00:47;;;;;;;4.30;3.90;;;;;;;;;;5054467;28;20028;-92
2021/06/13 23:03:17;;;;;;;5.75;4.15;;;;;;;;;;5022134;28;20506;-92
2021/06/13 23:05:43;;;;;;;4.40;4.00;;;;;;;;;;5033512;28;20022;-93
2021/06/13 23:08:09;;;;;;;5.45;3.78;;;;;;;;;;5033723;28;20028;-91
2021/06/13 23:10:36;;;;;;;4.65;4.25;;;;;;;;;;5033341;28;20087;-91
2021/06/13 23:13:02;;;;;;;5.78;4.10;;;;;;;;;;5033157;28;20040;-91
2021/06/13 23:15:28;;;;;;;4.75;3.80;;;;;;;;;;5033428;28;20059;-92
2021/06/13 23:17:54;;;;;;;7.35;4.20;;;;;;;;;;5032646;28;20082;-92
2021/06/13 23:20:20;;;;;;;6.13;4.13;;;;;;;;;;5037294;28;20482;-91
2021/06/13 23:22:46;;;;;;;6.18;4.07;;;;;;;;;;5054060;28;20394;-91
2021/06/13 23:25:12;;;;;;;5.60;4.20;;;;;;;;;;5053273;28;20048;-92
2021/06/13 23:27:38;;;;;;;5.22;4.32;;;;;;;;;;5052882;28;20107;-91
2021/06/13 23:30:06;;;;;;;4.20;3.70;;;;;;;;;;5054353;28;20533;-91
2021/06/13 23:32:32;;;;;;;6.57;3.70;;;;;;;;;;5053145;28;20423;-91
2021/06/13 23:34:57;;;;;;;4.85;4.35;;;;;;;;;;5034562;28;20105;-90
2021/06/13 23:37:23;;;;;;;4.32;3.95;;;;;;;;;;5036961;28;20020;-92
2021/06/13 23:39:48;;;;;;;4.45;4.00;;;;;;;;;;5053687;28;20025;-91
2021/06/13 23:42:14;;;;;;;4.70;4.30;;;;;;;;;;5053352;28;20037;-90
2021/06/13 23:44:39;;;;;;;5.28;4.05;;;;;;;;;;5053819;28;20580;-91
2021/06/13 23:47:05;;;;;;;7.00;4.40;;;;;;;;;;5053339;28;20021;-91
2021/06/13 23:49:30;;;;;;;4.70;4.30;;;;;;;;;;5053400;28;20043;-91
2021/06/13 23:51:56;;;;;;;8.55;4.78;;;;;;;;;;5054720;28;20402;-90
2021/06/13 23:54:21;;;;;;;6.53;4.05;;;;;;;;;;5053597;28;20376;-90
2021/06/13 23:56:47;;;;;;;7.93;4.57;;;;;;;;;;5053612;28;20017;-90
2021/06/13 23:59:12;;;;;;;4.90;4.40;;;;;;;;;;5053612;28;20521;-89
